createdAt,value
2023-12-22T00:07:30.901Z,21.80
2023-12-22T00:22:32.512Z,21.80
2023-12-22T00:37:34.107Z,21.80
2023-12-22T00:52:35.679Z,21.80
2023-12-22T01:07:37.304Z,21.80
2023-12-22T01:22:38.875Z,21.80
2023-12-22T01:37:40.429Z,21.80
2023-12-22T01:52:42.038Z,21.70
2023-12-22T02:07:43.587Z,21.80
2023-12-22T02:22:45.139Z,21.70
2023-12-22T02:37:46.831Z,21.70
2023-12-22T02:52:48.617Z,21.70
2023-12-22T03:07:50.346Z,21.70
2023-12-22T03:22:52.171Z,21.70
2023-12-22T03:37:53.929Z,21.70
2023-12-22T03:52:55.592Z,21.70
2023-12-22T04:07:57.233Z,21.70
2023-12-22T04:22:58.819Z,21.70
2023-12-22T04:38:00.448Z,21.70
2023-12-22T04:53:02.176Z,21.70
2023-12-22T05:08:03.775Z,21.70
2023-12-22T05:23:05.394Z,21.70
2023-12-22T05:38:06.977Z,21.70
2023-12-22T05:53:08.508Z,21.70
2023-12-22T06:08:10.029Z,21.70
2023-12-22T06:23:11.591Z,21.70
2023-12-22T06:38:13.243Z,21.60
2023-12-22T06:53:24.962Z,21.60
2023-12-22T07:08:27.632Z,21.70
2023-12-22T07:23:29.421Z,21.70
2023-12-22T07:38:30.975Z,21.70
2023-12-22T07:53:32.489Z,21.70
2023-12-22T08:08:33.981Z,21.60
2023-12-22T08:23:42.692Z,21.60
2023-12-22T08:38:46.077Z,21.60
2023-12-22T08:53:47.639Z,21.60
2023-12-22T09:08:49.151Z,21.60
2023-12-22T09:23:50.664Z,21.70
2023-12-22T09:38:52.173Z,21.70
2023-12-22T09:53:53.680Z,21.70
2023-12-22T10:08:55.465Z,21.70
2023-12-22T10:23:56.982Z,21.70
2023-12-22T10:38:58.482Z,21.70
2023-12-22T10:54:00.083Z,21.70
2023-12-22T11:09:02.782Z,21.70
2023-12-22T11:24:04.294Z,21.80
2023-12-22T11:39:05.811Z,21.90
2023-12-22T11:54:07.336Z,21.90
2023-12-22T12:09:08.840Z,21.90
2023-12-22T12:24:10.377Z,22.00
2023-12-22T12:39:11.889Z,22.00
2023-12-22T12:54:13.406Z,22.10
2023-12-22T13:09:14.970Z,22.00
2023-12-22T13:24:16.501Z,22.00
2023-12-22T13:39:18.214Z,22.10
2023-12-22T13:54:19.723Z,22.10
2023-12-22T14:09:21.222Z,22.20
2023-12-22T14:24:22.713Z,22.20
2023-12-22T14:39:24.222Z,22.30
2023-12-22T14:54:25.758Z,22.30
2023-12-22T15:09:27.278Z,22.30
2023-12-22T15:24:28.816Z,22.30
2023-12-22T15:39:30.317Z,22.30
2023-12-22T15:54:31.815Z,22.30
2023-12-22T16:09:33.319Z,22.30
2023-12-22T16:24:34.826Z,22.30
2023-12-22T16:39:38.504Z,22.30
2023-12-22T16:54:40.226Z,22.30
2023-12-22T17:09:41.818Z,22.30
2023-12-22T17:24:43.360Z,22.30
2023-12-22T17:39:44.880Z,22.30
2023-12-22T17:54:46.380Z,22.30
2023-12-22T18:09:47.874Z,22.30
2023-12-22T18:24:49.397Z,22.20
2023-12-22T18:39:50.910Z,22.20
2023-12-22T18:54:52.420Z,22.20
2023-12-22T19:09:53.928Z,22.20
2023-12-22T19:24:55.469Z,22.20
2023-12-22T19:39:56.968Z,22.20
2023-12-22T19:54:58.474Z,22.20
2023-12-22T20:09:59.990Z,22.20
2023-12-22T20:25:01.497Z,22.20
2023-12-22T20:40:03.012Z,22.20
2023-12-22T20:55:04.532Z,22.20
2023-12-22T21:10:06.162Z,22.20
2023-12-22T21:25:07.692Z,22.20
2023-12-22T21:40:10.792Z,22.10
2023-12-22T21:55:13.709Z,22.10
2023-12-22T22:10:15.245Z,22.10
2023-12-22T22:25:16.757Z,22.10
2023-12-22T22:40:18.258Z,22.10
2023-12-22T22:55:19.794Z,22.10
2023-12-22T23:10:21.308Z,22.00
2023-12-22T23:25:22.818Z,22.00
2023-12-22T23:40:24.348Z,22.00
2023-12-22T23:55:25.839Z,22.00
